Time;durP1;ratioP1;P1;durP2;ratioP2;P2;SDS_P1;SDS_P2;PMS_P1;PMS_P2;Temp;Humidity;BMP_temperature;BMP_pressure;BME280_temperature;BME280_humidity;BME280_pressure;Samples;Min_cycle;Max_cycle;Signal;HPM_P1;HPM_P2
2022/07/24 00:01:28;;;;;;;21.68;19.48;;;;;;;19.63;92.92;98956.14;2171231;82;20972;-79
2022/07/24 00:04:29;;;;;;;24.25;21.95;;;;;;;19.59;93.08;98949.17;2171206;81;21281;-79
2022/07/24 00:07:29;;;;;;;26.57;22.00;;;;;;;19.51;92.16;98952.86;2171028;81;20941;-79
2022/07/24 00:10:31;;;;;;;23.10;20.72;;;;;;;19.47;92.19;98961.78;2171346;81;20937;-78
2022/07/24 00:13:30;;;;;;;21.75;19.70;;;;;;;19.45;92.57;98964.46;2171387;81;21277;-79
2022/07/24 00:16:30;;;;;;;21.60;19.17;;;;;;;19.40;92.67;98956.63;2171153;81;21293;-79
2022/07/24 00:19:31;;;;;;;23.45;18.67;;;;;;;19.39;92.42;98958.85;2171088;81;20945;-79
2022/07/24 00:22:31;;;;;;;21.40;19.20;;;;;;;19.37;92.01;98957.14;2171442;81;20953;-80
2022/07/24 00:25:32;;;;;;;20.00;17.90;;;;;;;19.38;92.88;98961.08;2170808;81;21293;-79
2022/07/24 00:28:32;;;;;;;21.57;19.12;;;;;;;19.31;92.63;98959.92;2171185;81;20913;-80
2022/07/24 00:31:32;;;;;;;19.95;18.15;;;;;;;19.25;92.52;98960.05;2171017;81;20989;-79
2022/07/24 00:34:33;;;;;;;23.07;19.92;;;;;;;19.22;93.46;98962.77;2171363;81;20886;-79
2022/07/24 00:37:33;;;;;;;20.90;18.92;;;;;;;19.20;93.35;98960.60;2171430;81;20886;-79
2022/07/24 00:40:34;;;;;;;24.92;20.37;;;;;;;19.14;94.74;98958.95;2170917;81;21004;-80
2022/07/24 00:43:34;;;;;;;24.57;19.00;;;;;;;19.03;95.11;98951.20;2171116;81;20966;-79
2022/07/24 00:46:34;;;;;;;25.17;22.62;;;;;;;19.01;94.84;98963.59;2171374;81;21265;-79
2022/07/24 00:49:35;;;;;;;26.62;22.75;;;;;;;19.01;95.89;98970.20;2171567;80;20964;-79
2022/07/24 00:52:35;;;;;;;27.00;24.30;;;;;;;18.99;96.65;98970.69;2173376;81;20961;-78
2022/07/24 00:55:36;;;;;;;26.87;24.12;;;;;;;18.98;98.70;98978.20;2172995;81;21309;-79
2022/07/24 00:58:36;;;;;;;27.95;25.00;;;;;;;18.95;96.80;98976.07;2173355;81;21323;-79
2022/07/24 01:01:36;;;;;;;30.77;26.50;;;;;;;18.94;97.53;98976.52;2173254;81;20918;-79
2022/07/24 01:04:39;;;;;;;28.95;25.40;;;;;;;18.94;98.53;98976.97;2162867;82;20925;-79
2022/07/24 01:07:39;;;;;;;30.12;25.43;;;;;;;18.92;97.20;98984.06;2173323;81;20921;-79
2022/07/24 01:10:40;;;;;;;28.25;24.77;;;;;;;18.91;97.83;98988.94;2173193;81;21024;-79
2022/07/24 01:13:40;;;;;;;26.97;24.32;;;;;;;18.94;97.95;98989.75;2173110;81;20913;-79
2022/07/24 01:16:40;;;;;;;29.10;26.00;;;;;;;18.90;97.54;98985.88;2173713;81;20945;-79
2022/07/24 01:19:41;;;;;;;29.40;23.55;;;;;;;18.84;97.45;98986.86;2173437;81;21008;-79
2022/07/24 01:22:41;;;;;;;30.05;25.10;;;;;;;18.85;97.97;98983.77;2173555;81;20921;-80
2022/07/24 01:25:42;;;;;;;34.50;26.52;;;;;;;18.86;97.58;98985.05;2173498;81;20910;-79
2022/07/24 01:28:42;;;;;;;30.10;26.97;;;;;;;18.85;99.89;98991.25;2173488;81;21336;-79
2022/07/24 01:31:42;;;;;;;29.05;26.12;;;;;;;18.83;98.15;98984.25;2173374;81;20917;-79
2022/07/24 01:34:43;;;;;;;33.70;27.55;;;;;;;18.87;98.72;98985.48;2173426;81;20917;-80
2022/07/24 01:37:43;;;;;;;31.90;27.75;;;;;;;18.92;98.11;98992.00;2173114;81;20917;-80
2022/07/24 01:40:44;;;;;;;34.03;30.35;;;;;;;18.92;98.86;98984.06;2173066;81;20997;-78
2022/07/24 01:43:44;;;;;;;37.45;31.77;;;;;;;18.89;100.00;98988.09;2173259;81;20917;-79
2022/07/24 01:46:44;;;;;;;43.45;34.48;;;;;;;18.83;100.00;98988.21;2173226;81;21261;-79
2022/07/24 01:49:45;;;;;;;37.60;32.80;;;;;;;18.78;100.00;98985.66;2172564;81;20961;-79
2022/07/24 01:52:45;;;;;;;41.30;35.78;;;;;;;18.72;100.00;98981.80;2170952;81;20989;-80
2022/07/24 01:55:46;;;;;;;40.17;35.88;;;;;;;18.65;100.00;98988.98;2170718;81;21384;-79
2022/07/24 01:58:46;;;;;;;41.88;36.58;;;;;;;18.57;100.00;98986.89;2170946;81;20956;-79
2022/07/24 02:01:46;;;;;;;44.33;35.90;;;;;;;18.52;100.00;98992.70;2170903;81;20932;-79
2022/07/24 02:04:47;;;;;;;44.30;36.08;;;;;;;18.46;100.00;98988.41;2170957;81;20969;-79
2022/07/24 02:07:47;;;;;;;44.03;35.95;;;;;;;18.40;100.00;98981.03;2170957;81;20902;-78
2022/07/24 02:10:48;;;;;;;41.05;36.28;;;;;;;18.37;100.00;98988.56;2171004;81;20972;-79
2022/07/24 02:13:48;;;;;;;42.25;36.35;;;;;;;18.35;100.00;98982.88;2170516;81;20913;-78
2022/07/24 02:16:48;;;;;;;42.00;34.15;;;;;;;18.33;100.00;98985.55;2170336;81;20929;-79
2022/07/24 02:19:49;;;;;;;41.02;35.35;;;;;;;18.32;100.00;98983.80;2170499;81;20983;-78
2022/07/24 02:22:49;;;;;;;38.00;34.03;;;;;;;18.31;100.00;98978.10;2171075;81;20936;-80
2022/07/24 02:25:50;;;;;;;39.13;34.85;;;;;;;18.31;100.00;98984.70;2171085;81;21277;-79
2022/07/24 02:28:50;;;;;;;38.98;33.28;;;;;;;18.31;100.00;98980.74;2170891;81;20906;-79
2022/07/24 02:31:50;;;;;;;38.88;32.85;;;;;;;18.30;100.00;98972.84;2171249;80;20992;-78
2022/07/24 02:34:51;;;;;;;33.83;30.23;;;;;;;18.27;100.00;98984.33;2170635;81;21293;-79
2022/07/24 02:37:51;;;;;;;35.90;30.65;;;;;;;18.22;100.00;98982.22;2170179;81;20948;-78
2022/07/24 02:40:52;;;;;;;34.35;30.75;;;;;;;18.21;100.00;98995.45;2170135;81;21025;-78
2022/07/24 02:43:52;;;;;;;33.60;30.15;;;;;;;18.18;100.00;98998.98;2170601;81;21276;-78
2022/07/24 02:46:52;;;;;;;38.30;29.05;;;;;;;18.19;100.00;98995.90;2170898;81;20983;-78
2022/07/24 02:49:53;;;;;;;35.05;31.48;;;;;;;18.17;100.00;98999.02;2170980;82;21021;-79
2022/07/24 02:52:53;;;;;;;31.05;27.98;;;;;;;18.17;100.00;98994.59;2170605;81;21297;-78
2022/07/24 02:55:58;;;;;;;37.50;28.00;;;;;;;18.17;100.00;99000.33;2170380;81;21299;-80
2022/07/24 02:58:56;;;;;;;31.80;26.80;;;;;;;18.15;100.00;99002.55;2161946;82;20933;-79
2022/07/24 03:01:56;;;;;;;35.05;28.30;;;;;;;18.15;100.00;99004.32;2170685;81;20897;-80
2022/07/24 03:04:57;;;;;;;31.97;26.65;;;;;;;18.15;100.00;99012.25;2171059;81;20941;-79
2022/07/24 03:07:57;;;;;;;30.48;26.97;;;;;;;18.12;100.00;99013.17;2170738;81;20937;-79
2022/07/24 03:10:57;;;;;;;36.17;25.52;;;;;;;18.11;100.00;99020.67;2170607;81;21033;-79
2022/07/24 03:13:58;;;;;;;29.80;24.10;;;;;;;18.08;100.00;99019.39;2171068;81;20914;-79
2022/07/24 03:16:58;;;;;;;28.77;24.77;;;;;;;18.07;100.00;99022.06;2170894;81;20960;-79
2022/07/24 03:19:59;;;;;;;26.90;24.10;;;;;;;18.07;100.00;99029.53;2170715;81;21358;-79
2022/07/24 03:22:59;;;;;;;25.23;22.27;;;;;;;18.10;100.00;99031.26;2170808;81;20953;-79
2022/07/24 03:25:59;;;;;;;26.30;22.30;;;;;;;18.14;100.00;99030.31;2170928;81;20949;-81
2022/07/24 03:29:00;;;;;;;23.73;21.33;;;;;;;18.15;100.00;99033.37;2170974;81;21320;-80
2022/07/24 03:32:00;;;;;;;24.47;22.07;;;;;;;18.17;100.00;99041.28;2170783;81;21165;-80
2022/07/24 03:35:01;;;;;;;24.77;22.42;;;;;;;18.16;99.78;99037.77;2171194;81;20893;-80
2022/07/24 03:38:01;;;;;;;24.37;20.80;;;;;;;18.14;99.97;99043.08;2171175;81;20945;-80
2022/07/24 03:41:01;;;;;;;21.50;19.48;;;;;;;18.15;99.51;99042.18;2171323;81;21332;-84
2022/07/24 03:44:02;;;;;;;23.10;20.27;;;;;;;18.24;100.00;99047.80;2171473;81;20957;-78
2022/07/24 03:47:02;;;;;;;20.35;18.52;;;;;;;19.16;97.21;99050.21;2170970;82;20905;-78
2022/07/24 03:50:03;;;;;;;21.07;18.00;;;;;;;18.89;94.36;99047.60;2170944;80;20921;-78
2022/07/24 03:53:03;;;;;;;21.17;17.77;;;;;;;18.60;94.63;99043.67;2170956;81;21265;-79
2022/07/24 03:56:04;;;;;;;22.87;19.35;;;;;;;18.43;94.96;99050.57;2170704;81;20984;-78
2022/07/24 03:59:04;;;;;;;19.70;17.65;;;;;;;18.31;95.50;99050.77;2171097;82;20964;-79
2022/07/24 04:02:04;;;;;;;21.93;19.48;;;;;;;18.19;95.87;99060.17;2170709;82;20913;-80
2022/07/24 04:05:08;;;;;;;19.90;17.52;;;;;;;18.09;96.40;99053.28;2171003;81;21306;-79
2022/07/24 04:08:05;;;;;;;21.95;19.40;;;;;;;18.03;96.26;99055.57;2170943;81;20913;-79
2022/07/24 04:11:07;;;;;;;23.25;19.07;;;;;;;18.02;96.50;99066.16;2170840;82;20977;-78
2022/07/24 04:14:06;;;;;;;25.32;20.23;;;;;;;18.02;96.43;99067.48;2170567;81;21323;-78
2022/07/24 04:17:06;;;;;;;21.00;19.00;;;;;;;17.98;97.00;99069.73;2170725;81;20901;-78
2022/07/24 04:20:07;;;;;;;22.17;20.00;;;;;;;18.01;96.76;99069.70;2170799;81;20949;-78
2022/07/24 04:23:07;;;;;;;22.02;19.12;;;;;;;18.17;96.18;99070.34;2170999;81;20894;-78
2022/07/24 04:26:08;;;;;;;24.80;19.87;;;;;;;18.25;95.65;99075.97;2170510;81;21308;-79
2022/07/24 04:29:08;;;;;;;22.90;19.70;;;;;;;18.27;95.22;99074.17;2170018;81;20921;-77
2022/07/24 04:32:08;;;;;;;23.80;20.15;;;;;;;18.28;94.77;99081.66;2170101;81;20921;-77
2022/07/24 04:35:09;;;;;;;22.48;19.05;;;;;;;18.34;94.85;99088.16;2170199;81;20960;-77
2022/07/24 04:38:09;;;;;;;22.93;19.67;;;;;;;18.49;94.51;99091.02;2170023;81;20914;-78
2022/07/24 04:41:10;;;;;;;22.82;19.95;;;;;;;18.49;94.23;99101.59;2170097;81;20991;-78
2022/07/24 04:44:10;;;;;;;20.23;18.32;;;;;;;18.51;94.34;99102.44;2170755;81;20929;-79
2022/07/24 04:47:11;;;;;;;24.70;19.92;;;;;;;18.54;94.05;99102.38;2170829;81;20909;-78
2022/07/24 04:50:11;;;;;;;21.37;19.27;;;;;;;18.67;93.70;99103.97;2170910;81;20945;-78
2022/07/24 04:53:11;;;;;;;23.47;19.85;;;;;;;18.92;92.64;99107.94;2171026;81;20961;-78
2022/07/24 04:56:12;;;;;;;20.95;17.90;;;;;;;18.97;91.67;99108.72;2171001;81;20929;-77
2022/07/24 04:59:12;;;;;;;21.80;19.52;;;;;;;18.93;91.21;99116.73;2170746;82;20948;-79
2022/07/24 05:02:13;;;;;;;23.45;18.85;;;;;;;18.85;91.71;99116.87;2170935;81;21001;-77
2022/07/24 05:05:13;;;;;;;21.57;19.35;;;;;;;18.81;91.63;99112.98;2170884;81;20937;-78
2022/07/24 05:08:13;;;;;;;23.57;19.65;;;;;;;18.80;91.27;99116.08;2172201;81;21095;-85
2022/07/24 05:11:14;;;;;;;22.22;19.98;;;;;;;18.82;90.73;99116.92;2172344;81;20921;-84
2022/07/24 05:14:14;;;;;;;22.80;20.48;;;;;;;18.81;90.38;99119.14;2171512;81;20921;-84
2022/07/24 05:17:15;;;;;;;19.48;17.20;;;;;;;18.91;90.19;99122.06;2172041;81;20921;-84
2022/07/24 05:20:15;;;;;;;21.57;18.62;;;;;;;19.04;89.61;99134.17;2171578;82;20960;-84
2022/07/24 05:23:15;;;;;;;20.95;18.75;;;;;;;19.05;88.69;99133.72;2171099;80;20917;-84
2022/07/24 05:26:16;;;;;;;19.42;16.87;;;;;;;19.05;88.04;99133.27;2170655;81;21348;-84
2022/07/24 05:29:16;;;;;;;20.60;17.00;;;;;;;19.12;88.79;99129.23;2171440;81;20913;-83
2022/07/24 05:32:17;;;;;;;18.70;16.70;;;;;;;19.21;87.49;99131.25;2171207;81;20932;-84
2022/07/24 05:35:17;;;;;;;20.52;15.98;;;;;;;19.45;86.23;99137.86;2170727;81;21312;-84
2022/07/24 05:38:17;;;;;;;15.35;13.85;;;;;;;19.69;85.10;99129.45;2171624;81;20953;-84
2022/07/24 05:41:18;;;;;;;16.60;14.25;;;;;;;19.90;84.12;99135.22;2171566;82;20929;-83
2022/07/24 05:44:18;;;;;;;16.02;14.33;;;;;;;19.75;82.63;99136.41;2171327;81;21364;-83
2022/07/24 05:47:19;;;;;;;16.77;14.87;;;;;;;19.53;82.29;99136.42;2171497;81;20960;-84
2022/07/24 05:50:19;;;;;;;14.70;13.22;;;;;;;19.35;83.05;99138.94;2171259;81;20996;-81
2022/07/24 05:53:19;;;;;;;14.80;13.00;;;;;;;19.68;83.01;99144.93;2170146;81;21309;-80
2022/07/24 05:56:20;;;;;;;13.40;12.13;;;;;;;20.10;81.55;99145.41;2171040;81;20973;-80
2022/07/24 05:59:20;;;;;;;14.25;12.18;;;;;;;20.21;80.04;99146.92;2171496;81;20956;-80
2022/07/24 06:02:21;;;;;;;14.03;12.65;;;;;;;20.15;79.56;99144.41;2171166;81;21246;-81
2022/07/24 06:05:21;;;;;;;12.25;10.53;;;;;;;20.54;78.95;99158.57;2171108;82;20949;-81
2022/07/24 06:08:21;;;;;;;11.95;10.82;;;;;;;20.82;77.17;99153.51;2170577;81;20948;-81
2022/07/24 06:11:23;;;;;;;14.87;10.95;;;;;;;21.23;76.81;99148.50;2170639;82;20894;-81
2022/07/24 06:14:22;;;;;;;13.53;11.18;;;;;;;21.18;74.39;99152.16;2170648;81;21320;-80
2022/07/24 06:17:23;;;;;;;15.38;10.82;;;;;;;20.76;75.09;99152.75;2169938;81;20977;-80
2022/07/24 06:20:23;;;;;;;12.47;11.20;;;;;;;20.55;75.85;99159.44;2170433;81;20953;-79
2022/07/24 06:23:23;;;;;;;13.50;10.40;;;;;;;20.74;75.05;99159.88;2170763;81;20936;-80
2022/07/24 06:26:24;;;;;;;11.28;9.25;;;;;;;21.11;75.16;99155.88;2170806;82;20897;-83
2022/07/24 06:29:24;;;;;;;12.65;9.18;;;;;;;21.51;73.02;99150.41;2171615;81;20946;-82
2022/07/24 06:32:25;;;;;;;11.22;10.13;;;;;;;21.71;71.39;99157.86;2171731;81;21336;-82
2022/07/24 06:35:25;;;;;;;17.10;9.65;;;;;;;21.70;70.65;99152.13;2171618;81;20953;-83
2022/07/24 06:38:25;;;;;;;10.98;9.75;;;;;;;21.76;69.95;99159.93;2171615;81;20917;-82
2022/07/24 06:41:26;;;;;;;12.07;9.48;;;;;;;21.97;71.12;99161.97;2171448;81;20988;-82
2022/07/24 06:44:26;;;;;;;9.20;8.23;;;;;;;22.03;68.22;99165.81;2172288;80;20964;-82
2022/07/24 06:47:27;;;;;;;9.93;8.63;;;;;;;21.79;69.06;99165.16;2170898;81;20953;-82
2022/07/24 06:50:27;;;;;;;10.10;8.53;;;;;;;21.94;70.54;99158.07;2171019;81;20917;-82
2022/07/24 06:53:27;;;;;;;9.55;8.25;;;;;;;22.70;67.55;99166.88;2171205;82;20929;-83
2022/07/24 06:56:28;;;;;;;9.03;8.10;;;;;;;22.55;65.99;99162.92;2171964;80;20981;-82
2022/07/24 06:59:28;;;;;;;8.43;7.62;;;;;;;22.58;65.70;99162.83;2171297;82;20988;-84
2022/07/24 07:02:29;;;;;;;9.25;7.92;;;;;;;22.50;63.86;99158.17;2171043;81;20949;-83
2022/07/24 07:05:29;;;;;;;9.65;8.25;;;;;;;22.71;64.32;99157.52;2170495;81;20996;-83
2022/07/24 07:08:29;;;;;;;10.72;8.50;;;;;;;22.93;63.49;99156.85;2170697;81;20993;-83
2022/07/24 07:11:30;;;;;;;9.65;8.08;;;;;;;23.27;62.41;99157.45;2171217;80;20929;-82
2022/07/24 07:14:30;;;;;;;11.18;8.73;;;;;;;23.07;62.80;99163.91;2171095;81;20953;-82
2022/07/24 07:17:31;;;;;;;8.45;7.60;;;;;;;22.92;61.32;99169.75;2170637;80;20961;-83
2022/07/24 07:20:31;;;;;;;10.68;7.65;;;;;;;22.57;62.33;99171.73;2170297;82;21498;-82
2022/07/24 07:23:31;;;;;;;12.07;7.42;;;;;;;22.79;62.57;99168.78;2170549;81;20953;-82
2022/07/24 07:26:32;;;;;;;8.18;7.20;;;;;;;22.99;60.77;99173.95;2170440;82;20952;-83
2022/07/24 07:29:32;;;;;;;7.03;6.42;;;;;;;22.92;60.78;99171.08;2170161;81;21304;-82
2022/07/24 07:32:33;;;;;;;8.73;6.62;;;;;;;23.36;61.07;99171.78;2171124;81;21001;-82
2022/07/24 07:35:33;;;;;;;7.33;6.55;;;;;;;23.38;59.08;99167.73;2171436;81;20878;-82
2022/07/24 07:38:35;;;;;;;7.65;6.17;;;;;;;22.78;59.89;99173.70;2171304;81;21395;-82
2022/07/24 07:41:34;;;;;;;6.62;5.40;;;;;;;22.61;59.07;99176.49;2171445;81;20953;-82
2022/07/24 07:44:34;;;;;;;6.17;5.50;;;;;;;22.76;60.09;99176.88;2171482;81;20961;-84
2022/07/24 07:47:35;;;;;;;5.83;5.25;;;;;;;23.15;58.44;99176.51;2171326;81;21277;-82
2022/07/24 07:50:35;;;;;;;6.78;5.37;;;;;;;23.19;57.51;99173.69;2171371;81;20917;-82
2022/07/24 07:53:35;;;;;;;9.70;5.45;;;;;;;23.55;55.40;99179.19;2171058;81;20897;-82
2022/07/24 07:56:36;;;;;;;9.15;5.60;;;;;;;23.77;55.45;99174.83;2170619;82;21676;-82
2022/07/24 07:59:36;;;;;;;7.95;5.00;;;;;;;23.81;54.45;99168.00;2171140;81;21142;-81
2022/07/24 08:02:37;;;;;;;5.22;4.47;;;;;;;23.99;54.58;99174.44;2171293;82;20949;-83
2022/07/24 08:05:37;;;;;;;5.65;4.58;;;;;;;24.26;52.94;99175.66;2171445;81;20964;-82
2022/07/24 08:08:37;;;;;;;6.03;4.62;;;;;;;24.30;50.29;99177.34;2171233;81;20929;-82
2022/07/24 08:11:38;;;;;;;6.53;4.25;;;;;;;24.34;51.08;99177.63;2170579;81;20894;-83
2022/07/24 08:14:38;;;;;;;7.03;4.28;;;;;;;24.22;52.25;99180.70;2170718;80;20980;-82
2022/07/24 08:17:39;;;;;;;6.08;4.65;;;;;;;23.95;51.62;99180.81;2170245;81;21381;-82
2022/07/24 08:20:39;;;;;;;6.87;5.25;;;;;;;23.51;51.97;99187.72;2170294;81;20937;-82
2022/07/24 08:23:39;;;;;;;5.97;5.17;;;;;;;23.06;53.00;99191.46;2170141;81;20925;-82
2022/07/24 08:26:40;;;;;;;6.67;4.50;;;;;;;23.28;53.85;99191.14;2170474;81;21353;-82
2022/07/24 08:29:40;;;;;;;6.50;4.55;;;;;;;23.60;53.70;99193.22;2170587;82;20957;-82
2022/07/24 08:32:41;;;;;;;10.18;4.78;;;;;;;23.81;53.64;99192.45;2170727;80;20909;-82
2022/07/24 08:35:41;;;;;;;8.03;4.97;;;;;;;23.49;51.81;99203.76;2171027;81;20913;-82
2022/07/24 08:38:42;;;;;;;4.60;4.05;;;;;;;23.32;52.37;99202.56;2171367;81;21110;-81
2022/07/24 08:41:42;;;;;;;8.08;4.35;;;;;;;23.08;52.31;99212.25;2170916;81;20981;-81
2022/07/24 08:44:42;;;;;;;6.20;4.67;;;;;;;23.34;53.47;99201.59;2171206;82;20968;-82
2022/07/24 08:47:43;;;;;;;6.90;4.78;;;;;;;23.86;53.28;99199.81;2171250;81;21229;-82
2022/07/24 08:50:43;;;;;;;5.65;4.40;;;;;;;24.18;51.65;99199.95;2171880;81;20925;-82
2022/07/24 08:53:43;;;;;;;4.95;4.30;;;;;;;24.33;52.61;99199.44;2171884;81;20913;-82
2022/07/24 08:56:44;;;;;;;5.58;4.45;;;;;;;24.28;52.25;99194.74;2171927;81;20956;-82
2022/07/24 08:59:44;;;;;;;7.70;4.40;;;;;;;23.99;50.44;99205.10;2171800;81;20990;-83
2022/07/24 09:02:46;;;;;;;5.25;4.78;;;;;;;23.54;50.90;99200.06;2171986;81;20949;-82
2022/07/24 09:05:45;;;;;;;10.10;4.30;;;;;;;23.24;51.13;99208.16;2172073;81;20921;-82
2022/07/24 09:08:45;;;;;;;7.47;4.12;;;;;;;23.38;52.27;99205.89;2171640;81;20925;-82
2022/07/24 09:11:46;;;;;;;4.60;3.87;;;;;;;23.94;49.65;99214.20;2171709;81;20921;-81
2022/07/24 09:14:46;;;;;;;6.28;3.90;;;;;;;24.31;50.01;99200.42;2171725;81;20932;-82
2022/07/24 09:17:47;;;;;;;3.90;3.50;;;;;;;25.01;48.11;99195.86;2171901;81;21324;-82
2022/07/24 09:20:47;;;;;;;4.72;3.47;;;;;;;25.05;46.64;99196.13;2171425;82;20980;-82
2022/07/24 09:23:48;;;;;;;5.50;3.27;;;;;;;25.14;44.00;99198.88;2171464;81;20874;-82
2022/07/24 09:26:48;;;;;;;6.40;3.35;;;;;;;25.27;44.77;99188.59;2171720;81;21253;-83
2022/07/24 09:29:48;;;;;;;4.08;3.22;;;;;;;25.80;43.70;99190.76;2171709;81;20917;-82
2022/07/24 09:32:49;;;;;;;6.12;3.27;;;;;;;25.94;43.20;99197.23;2171503;82;20910;-81
2022/07/24 09:35:49;;;;;;;5.00;3.47;;;;;;;25.32;44.23;99200.81;2170990;81;20949;-83
2022/07/24 09:38:50;;;;;;;3.65;3.33;;;;;;;25.42;45.81;99195.08;2171106;81;20912;-83
2022/07/24 09:41:51;;;;;;;4.92;3.40;;;;;;;25.67;45.96;99198.45;2171491;81;20972;-82
2022/07/24 09:44:50;;;;;;;5.20;3.20;;;;;;;26.19;46.24;99200.16;2171702;81;21032;-82
2022/07/24 09:47:51;;;;;;;4.00;2.75;;;;;;;26.03;42.46;99190.63;2171682;81;20952;-81
2022/07/24 09:50:51;;;;;;;6.50;3.52;;;;;;;26.31;41.60;99192.42;2171446;81;20933;-82
2022/07/24 09:53:52;;;;;;;6.30;3.00;;;;;;;26.16;42.34;99193.61;2171692;81;20933;-83
2022/07/24 09:56:52;;;;;;;7.20;3.10;;;;;;;26.00;43.05;99184.91;2171795;81;20903;-83
2022/07/24 09:59:52;;;;;;;3.92;3.10;;;;;;;26.35;41.27;99191.84;2171868;81;21344;-83
2022/07/24 10:02:53;;;;;;;5.53;3.37;;;;;;;26.15;41.48;99190.53;2171558;81;20886;-82
2022/07/24 10:05:53;;;;;;;3.47;2.87;;;;;;;25.85;42.58;99190.95;2171602;81;20956;-82
2022/07/24 10:08:54;;;;;;;5.58;2.60;;;;;;;25.70;43.09;99195.64;2171570;81;20945;-82
2022/07/24 10:11:54;;;;;;;5.35;2.80;;;;;;;25.66;41.00;99188.70;2172336;81;21286;-84
2022/07/24 10:14:56;;;;;;;3.70;2.60;;;;;;;25.10;41.84;99194.60;2172125;81;21004;-82
2022/07/24 10:17:55;;;;;;;3.05;2.77;;;;;;;24.91;43.49;99190.92;2172075;81;20925;-83
2022/07/24 10:20:55;;;;;;;4.60;2.70;;;;;;;25.49;42.62;99185.86;2171941;81;20944;-83
2022/07/24 10:23:56;;;;;;;4.95;2.22;;;;;;;25.93;39.84;99184.80;2172041;82;20910;-84
2022/07/24 10:26:58;;;;;;;7.10;2.50;;;;;;;26.22;40.69;99179.95;2171646;81;20925;-83
2022/07/24 10:29:57;;;;;;;7.00;2.72;;;;;;;26.59;38.82;99183.98;2171695;81;20937;-83
2022/07/24 10:32:57;;;;;;;5.50;2.70;;;;;;;26.76;38.87;99183.65;2171961;81;20948;-83
2022/07/24 10:35:58;;;;;;;3.15;2.72;;;;;;;26.90;39.36;99185.21;2172831;80;20901;-83
2022/07/24 10:38:58;;;;;;;4.33;2.37;;;;;;;26.99;39.07;99188.81;2171499;81;20929;-84
2022/07/24 10:41:58;;;;;;;2.77;2.55;;;;;;;27.15;39.69;99179.06;2171063;81;21388;-85
2022/07/24 10:44:58;;;;;;;6.97;2.33;;;;;;;27.21;38.91;99185.45;2171650;81;21271;-83
2022/07/24 10:47:59;;;;;;;5.05;2.17;;;;;;;26.78;35.19;99193.81;2171772;81;20937;-82
2022/07/24 10:50:59;;;;;;;4.35;2.30;;;;;;;26.65;36.18;99182.36;2171717;81;21277;-83
2022/07/24 10:54:00;;;;;;;3.62;2.40;;;;;;;26.74;36.01;99184.19;2170947;80;20992;-82
2022/07/24 10:57:00;;;;;;;4.72;2.83;;;;;;;26.72;35.75;99182.92;2172309;81;20933;-83
2022/07/24 11:00:01;;;;;;;3.77;2.35;;;;;;;26.56;36.55;99189.96;2172471;80;20921;-84
2022/07/24 11:03:01;;;;;;;3.15;2.25;;;;;;;26.42;36.79;99176.37;2171361;81;20917;-84
2022/07/24 11:06:01;;;;;;;4.42;2.60;;;;;;;26.41;36.95;99175.97;2171780;81;20917;-82
2022/07/24 11:09:03;;;;;;;2.50;2.27;;;;;;;25.96;37.96;99177.10;2171452;81;20949;-82
2022/07/24 11:12:03;;;;;;;7.00;2.45;;;;;;;26.16;38.52;99173.54;2171338;81;20925;-83
2022/07/24 11:18:22;;;;;;;2.47;2.10;;;;;;;26.12;37.22;99171.95;2171265;82;21301;-84
2022/07/24 11:21:22;;;;;;;4.47;2.25;;;;;;;26.19;37.51;99158.22;2171325;80;20953;-82
2022/07/24 11:24:24;;;;;;;3.20;2.33;;;;;;;26.32;36.89;99157.17;2172501;81;20981;-83
2022/07/24 11:27:23;;;;;;;3.30;2.00;;;;;;;26.39;37.08;99157.31;2171808;81;21308;-83
2022/07/24 11:30:23;;;;;;;2.20;2.00;;;;;;;26.31;35.72;99158.11;2171154;81;20929;-82
2022/07/24 11:33:25;;;;;;;1.85;1.62;;;;;;;26.18;36.06;99156.48;2171165;81;20921;-84
2022/07/24 11:36:25;;;;;;;3.35;2.00;;;;;;;26.52;36.13;99154.44;2171299;81;21361;-83
2022/07/24 11:39:25;;;;;;;1.80;1.70;;;;;;;26.39;35.97;99153.30;2172077;81;20993;-83
2022/07/24 11:42:26;;;;;;;1.98;1.82;;;;;;;26.72;36.03;99159.30;2171852;81;20913;-84
2022/07/24 11:45:26;;;;;;;4.80;2.35;;;;;;;27.06;35.43;99158.09;2171501;81;21019;-82
2022/07/24 11:48:27;;;;;;;5.30;2.40;;;;;;;27.24;36.07;99154.47;2171992;81;20952;-82
2022/07/24 11:51:27;;;;;;;2.62;2.05;;;;;;;27.22;34.15;99155.02;2171272;81;20917;-83
2022/07/24 11:54:27;;;;;;;3.80;2.10;;;;;;;27.32;34.37;99157.23;2171852;81;20914;-83
2022/07/24 11:57:28;;;;;;;2.00;1.80;;;;;;;27.36;35.02;99158.34;2171615;81;21261;-83
2022/07/24 12:00:28;;;;;;;2.12;1.90;;;;;;;27.47;34.05;99155.10;2171504;81;20905;-83
2022/07/24 12:03:29;;;;;;;3.60;1.82;;;;;;;27.49;33.47;99153.20;2172112;81;20870;-83
2022/07/24 12:06:29;;;;;;;3.45;2.10;;;;;;;27.48;33.64;99151.00;2172020;81;21309;-82
2022/07/24 12:09:30;;;;;;;5.10;2.25;;;;;;;27.69;34.22;99155.73;2171995;81;20949;-82
2022/07/24 12:12:30;;;;;;;2.22;1.85;;;;;;;27.86;32.99;99149.03;2172344;82;20902;-83
2022/07/24 12:15:31;;;;;;;2.40;2.20;;;;;;;28.03;32.81;99146.77;2171399;81;21443;-83
2022/07/24 12:18:31;;;;;;;3.22;1.92;;;;;;;27.55;32.81;99159.11;2171469;81;21336;-83
2022/07/24 12:21:31;;;;;;;3.65;1.90;;;;;;;27.17;33.91;99153.05;2171584;81;20921;-82
2022/07/24 12:24:31;;;;;;;2.15;1.72;;;;;;;27.36;34.34;99148.09;2172009;81;20898;-82
2022/07/24 12:27:32;;;;;;;4.05;2.08;;;;;;;27.40;33.03;99154.55;2171885;82;21329;-83
2022/07/24 12:30:32;;;;;;;2.25;2.05;;;;;;;27.05;33.67;99143.43;2172000;82;20889;-83
2022/07/24 12:33:33;;;;;;;3.15;1.80;;;;;;;27.04;34.29;99143.03;2171974;81;20944;-83
2022/07/24 12:36:33;;;;;;;1.92;1.80;;;;;;;27.24;34.29;99140.20;2172571;81;20905;-84
2022/07/24 12:39:33;;;;;;;2.30;1.67;;;;;;;26.92;33.79;99145.35;2172151;81;20940;-82
2022/07/24 12:42:34;;;;;;;1.77;1.50;;;;;;;27.01;34.23;99145.39;2172354;81;21269;-83
2022/07/24 12:45:34;;;;;;;1.60;1.50;;;;;;;27.23;33.57;99144.70;2172332;81;21012;-83
2022/07/24 12:48:35;;;;;;;2.15;1.65;;;;;;;27.39;33.27;99142.56;2172670;81;20936;-85
2022/07/24 12:51:35;;;;;;;2.40;1.52;;;;;;;27.49;32.18;99146.50;2172500;81;20949;-85
2022/07/24 12:54:36;;;;;;;4.85;1.72;;;;;;;27.47;31.94;99149.73;2172129;81;20985;-84
2022/07/24 12:57:38;;;;;;;2.17;1.35;;;;;;;27.56;32.88;99138.53;2172104;81;20925;-83
2022/07/24 13:00:36;;;;;;;6.72;1.82;;;;;;;27.49;31.83;99146.03;2172300;81;20925;-83
2022/07/24 13:03:37;;;;;;;2.30;1.67;;;;;;;27.32;33.48;99129.95;2172457;81;20901;-84
2022/07/24 13:06:37;;;;;;;4.12;1.50;;;;;;;27.55;31.99;99134.12;2172166;81;20949;-84
2022/07/24 13:09:38;;;;;;;2.95;1.40;;;;;;;27.38;32.30;99136.81;2172075;81;20913;-84
2022/07/24 13:12:38;;;;;;;2.72;1.10;;;;;;;27.10;33.18;99126.65;2172101;81;20870;-84
2022/07/24 13:15:38;;;;;;;4.80;1.50;;;;;;;27.46;32.95;99124.74;2172122;81;20987;-84
2022/07/24 13:18:39;;;;;;;1.67;1.40;;;;;;;27.48;32.00;99123.33;2172308;81;20948;-84
2022/07/24 13:21:39;;;;;;;3.42;1.40;;;;;;;27.48;32.28;99128.21;2171851;81;20948;-83
2022/07/24 13:24:40;;;;;;;1.70;1.60;;;;;;;27.56;32.22;99122.45;2171936;82;20889;-84
2022/07/24 13:27:40;;;;;;;6.28;1.70;;;;;;;27.59;31.87;99107.53;2171974;82;20948;-84
2022/07/24 13:30:40;;;;;;;3.92;1.80;;;;;;;27.59;31.87;99107.53;2171733;81;20933;-84
2022/07/24 13:33:41;;;;;;;3.22;1.45;;;;;;;27.59;32.34;99118.26;2172128;81;20921;-84
2022/07/24 13:36:41;;;;;;;3.60;1.30;;;;;;;27.77;32.30;99124.05;2172118;81;21265;-85
2022/07/24 13:39:42;;;;;;;2.00;1.50;;;;;;;27.98;31.98;99126.52;2171806;81;20917;-84
2022/07/24 13:42:42;;;;;;;5.80;1.90;;;;;;;28.22;31.89;99115.29;2171574;82;20901;-80
2022/07/24 13:45:42;;;;;;;4.40;1.57;;;;;;;28.12;30.65;99113.20;2171068;81;20953;-80
2022/07/24 13:48:43;;;;;;;1.82;1.60;;;;;;;28.06;30.91;99111.72;2171309;81;21273;-79
2022/07/24 13:51:43;;;;;;;2.08;1.60;;;;;;;27.69;31.89;99110.63;2170875;81;20961;-80
2022/07/24 13:54:44;;;;;;;1.92;1.52;;;;;;;27.69;31.89;99110.63;2172729;82;20980;-79
2022/07/24 13:57:44;;;;;;;4.62;1.57;;;;;;;27.56;32.32;99113.92;2173270;81;20961;-80
2022/07/24 14:00:44;;;;;;;2.25;1.85;;;;;;;27.90;31.95;99117.06;2173146;81;20932;-79